Terminal Aerodrome Forecast
Issued by NWS

Home | Current Version | Previous Version | Text Only | Print | Product List | Glossary On
Versions: 1 2 3 4 5 6 7 8 9 10 11 12 13 14 15 16 17 18 19 20 21 22 23
000
FTUS43 KGLD 261126
TAFMCK
TAF
KMCK 261126Z 2612/2712 36013KT P6SM OVC014
      TEMPO 2616/2620 5SM -SN BR OVC010
     FM262200 02014G24KT 1SM -SN BLSN OVC003
     FM270300 33010G16KT 2SM -SN OVC008
     FM270700 32008KT P6SM SCT015 OVC040=

USA.gov is the U.S. government's official web portal to all federal, state and local government web resources and services.